sensor_id;sensor_type;location;lat;lon;timestamp;P1;durP1;ratioP1;P2;durP2;ratioP2
13032;SDS011;6583;42.632;23.298;2024-03-07T00:01:38;38.87;;;27.13;;
13032;SDS011;6583;42.632;23.298;2024-03-07T00:04:05;37.03;;;26.60;;
13032;SDS011;6583;42.632;23.298;2024-03-07T00:06:32;36.27;;;26.20;;
13032;SDS011;6583;42.632;23.298;2024-03-07T00:08:59;34.57;;;25.27;;
13032;SDS011;6583;42.632;23.298;2024-03-07T00:11:25;35.50;;;26.13;;
13032;SDS011;6583;42.632;23.298;2024-03-07T00:13:53;31.60;;;23.70;;
13032;SDS011;6583;42.632;23.298;2024-03-07T00:16:21;34.50;;;25.07;;
13032;SDS011;6583;42.632;23.298;2024-03-07T00:18:48;33.20;;;25.17;;
13032;SDS011;6583;42.632;23.298;2024-03-07T00:21:14;34.03;;;25.03;;
13032;SDS011;6583;42.632;23.298;2024-03-07T00:23:41;37.20;;;26.17;;
13032;SDS011;6583;42.632;23.298;2024-03-07T00:26:08;41.13;;;28.37;;
13032;SDS011;6583;42.632;23.298;2024-03-07T00:28:35;39.33;;;27.50;;
13032;SDS011;6583;42.632;23.298;2024-03-07T00:31:04;35.53;;;26.23;;
13032;SDS011;6583;42.632;23.298;2024-03-07T00:33:33;36.50;;;26.10;;
13032;SDS011;6583;42.632;23.298;2024-03-07T00:36:00;35.37;;;26.20;;
13032;SDS011;6583;42.632;23.298;2024-03-07T00:38:27;32.63;;;23.97;;
13032;SDS011;6583;42.632;23.298;2024-03-07T00:40:54;36.60;;;26.50;;
13032;SDS011;6583;42.632;23.298;2024-03-07T00:43:20;33.97;;;25.43;;
13032;SDS011;6583;42.632;23.298;2024-03-07T00:45:47;41.57;;;25.33;;
13032;SDS011;6583;42.632;23.298;2024-03-07T00:48:15;33.73;;;24.77;;
13032;SDS011;6583;42.632;23.298;2024-03-07T00:50:43;38.43;;;26.80;;
13032;SDS011;6583;42.632;23.298;2024-03-07T00:53:09;34.57;;;25.57;;
13032;SDS011;6583;42.632;23.298;2024-03-07T00:55:36;34.00;;;25.40;;
13032;SDS011;6583;42.632;23.298;2024-03-07T00:58:03;33.87;;;25.40;;
13032;SDS011;6583;42.632;23.298;2024-03-07T01:00:30;52.83;;;25.83;;
13032;SDS011;6583;42.632;23.298;2024-03-07T01:02:56;35.73;;;25.53;;
13032;SDS011;6583;42.632;23.298;2024-03-07T01:05:24;29.10;;;22.57;;
13032;SDS011;6583;42.632;23.298;2024-03-07T01:07:52;28.43;;;21.57;;
13032;SDS011;6583;42.632;23.298;2024-03-07T01:10:20;30.47;;;22.90;;
13032;SDS011;6583;42.632;23.298;2024-03-07T01:12:47;29.93;;;22.43;;
13032;SDS011;6583;42.632;23.298;2024-03-07T01:15:15;31.97;;;23.20;;
13032;SDS011;6583;42.632;23.298;2024-03-07T01:17:41;28.87;;;22.67;;
13032;SDS011;6583;42.632;23.298;2024-03-07T01:20:10;34.40;;;23.63;;
13032;SDS011;6583;42.632;23.298;2024-03-07T01:22:37;34.20;;;24.63;;
13032;SDS011;6583;42.632;23.298;2024-03-07T01:25:05;32.43;;;23.13;;
13032;SDS011;6583;42.632;23.298;2024-03-07T01:27:32;36.63;;;25.80;;
13032;SDS011;6583;42.632;23.298;2024-03-07T01:29:59;30.60;;;23.07;;
13032;SDS011;6583;42.632;23.298;2024-03-07T01:32:26;29.77;;;22.13;;
13032;SDS011;6583;42.632;23.298;2024-03-07T01:34:53;27.77;;;21.43;;
13032;SDS011;6583;42.632;23.298;2024-03-07T01:37:20;26.80;;;19.53;;
13032;SDS011;6583;42.632;23.298;2024-03-07T01:39:46;24.93;;;18.87;;
13032;SDS011;6583;42.632;23.298;2024-03-07T01:42:14;25.43;;;19.50;;
13032;SDS011;6583;42.632;23.298;2024-03-07T01:44:41;24.50;;;18.60;;
13032;SDS011;6583;42.632;23.298;2024-03-07T01:47:09;24.00;;;18.57;;
13032;SDS011;6583;42.632;23.298;2024-03-07T01:49:36;25.90;;;18.57;;
13032;SDS011;6583;42.632;23.298;2024-03-07T01:52:04;26.83;;;19.80;;
13032;SDS011;6583;42.632;23.298;2024-03-07T01:54:31;26.03;;;19.50;;
13032;SDS011;6583;42.632;23.298;2024-03-07T01:56:59;24.77;;;18.43;;
13032;SDS011;6583;42.632;23.298;2024-03-07T01:59:29;33.00;;;19.73;;
13032;SDS011;6583;42.632;23.298;2024-03-07T02:01:57;27.80;;;18.87;;
13032;SDS011;6583;42.632;23.298;2024-03-07T02:04:26;26.13;;;18.77;;
13032;SDS011;6583;42.632;23.298;2024-03-07T02:06:53;25.00;;;18.17;;
13032;SDS011;6583;42.632;23.298;2024-03-07T02:09:20;24.47;;;18.63;;
13032;SDS011;6583;42.632;23.298;2024-03-07T02:11:50;24.43;;;17.63;;
13032;SDS011;6583;42.632;23.298;2024-03-07T02:14:17;22.87;;;16.53;;
13032;SDS011;6583;42.632;23.298;2024-03-07T02:16:45;24.33;;;17.20;;
13032;SDS011;6583;42.632;23.298;2024-03-07T02:19:12;22.60;;;16.20;;
13032;SDS011;6583;42.632;23.298;2024-03-07T02:21:42;21.63;;;16.17;;
13032;SDS011;6583;42.632;23.298;2024-03-07T02:24:09;19.53;;;15.30;;
13032;SDS011;6583;42.632;23.298;2024-03-07T02:26:36;20.50;;;15.67;;
13032;SDS011;6583;42.632;23.298;2024-03-07T02:29:04;18.50;;;14.30;;
13032;SDS011;6583;42.632;23.298;2024-03-07T02:31:31;16.93;;;12.10;;
13032;SDS011;6583;42.632;23.298;2024-03-07T02:34:02;10.27;;;8.30;;
13032;SDS011;6583;42.632;23.298;2024-03-07T02:36:29;13.90;;;9.73;;
13032;SDS011;6583;42.632;23.298;2024-03-07T02:38:57;10.13;;;7.77;;
13032;SDS011;6583;42.632;23.298;2024-03-07T02:41:24;8.97;;;6.77;;
13032;SDS011;6583;42.632;23.298;2024-03-07T02:43:51;8.17;;;7.07;;
13032;SDS011;6583;42.632;23.298;2024-03-07T02:46:18;8.77;;;6.63;;
13032;SDS011;6583;42.632;23.298;2024-03-07T02:48:45;8.63;;;7.20;;
13032;SDS011;6583;42.632;23.298;2024-03-07T02:51:11;8.87;;;7.67;;
13032;SDS011;6583;42.632;23.298;2024-03-07T02:53:38;10.97;;;8.17;;
13032;SDS011;6583;42.632;23.298;2024-03-07T02:56:06;10.27;;;8.63;;
13032;SDS011;6583;42.632;23.298;2024-03-07T02:58:34;10.70;;;8.33;;
13032;SDS011;6583;42.632;23.298;2024-03-07T03:01:01;12.43;;;9.80;;
13032;SDS011;6583;42.632;23.298;2024-03-07T03:03:29;12.20;;;10.30;;
13032;SDS011;6583;42.632;23.298;2024-03-07T03:05:57;17.47;;;9.67;;
13032;SDS011;6583;42.632;23.298;2024-03-07T03:08:24;15.33;;;9.40;;
13032;SDS011;6583;42.632;23.298;2024-03-07T03:10:53;10.77;;;8.23;;
13032;SDS011;6583;42.632;23.298;2024-03-07T03:13:23;10.87;;;8.00;;
13032;SDS011;6583;42.632;23.298;2024-03-07T03:15:49;10.13;;;8.00;;
13032;SDS011;6583;42.632;23.298;2024-03-07T03:18:16;10.93;;;8.63;;
13032;SDS011;6583;42.632;23.298;2024-03-07T03:20:43;11.70;;;8.57;;
13032;SDS011;6583;42.632;23.298;2024-03-07T03:23:13;10.83;;;8.87;;
13032;SDS011;6583;42.632;23.298;2024-03-07T03:25:40;10.63;;;8.70;;
13032;SDS011;6583;42.632;23.298;2024-03-07T03:28:07;12.10;;;9.13;;
13032;SDS011;6583;42.632;23.298;2024-03-07T03:30:36;11.90;;;8.83;;
13032;SDS011;6583;42.632;23.298;2024-03-07T03:33:03;11.77;;;9.10;;
13032;SDS011;6583;42.632;23.298;2024-03-07T03:35:30;9.03;;;6.97;;
13032;SDS011;6583;42.632;23.298;2024-03-07T03:37:57;9.33;;;7.20;;
13032;SDS011;6583;42.632;23.298;2024-03-07T03:40:24;22.83;;;8.03;;
13032;SDS011;6583;42.632;23.298;2024-03-07T03:42:51;10.83;;;8.50;;
13032;SDS011;6583;42.632;23.298;2024-03-07T03:45:17;11.37;;;8.87;;
13032;SDS011;6583;42.632;23.298;2024-03-07T03:47:46;14.03;;;9.90;;
13032;SDS011;6583;42.632;23.298;2024-03-07T03:50:13;11.90;;;8.77;;
13032;SDS011;6583;42.632;23.298;2024-03-07T03:52:40;11.83;;;8.90;;
13032;SDS011;6583;42.632;23.298;2024-03-07T03:55:07;10.93;;;8.30;;
13032;SDS011;6583;42.632;23.298;2024-03-07T03:57:36;11.00;;;8.23;;
13032;SDS011;6583;42.632;23.298;2024-03-07T04:00:05;10.67;;;8.70;;
13032;SDS011;6583;42.632;23.298;2024-03-07T04:02:37;11.20;;;8.63;;
13032;SDS011;6583;42.632;23.298;2024-03-07T04:05:07;87.53;;;12.23;;
13032;SDS011;6583;42.632;23.298;2024-03-07T04:07:35;10.50;;;8.50;;
13032;SDS011;6583;42.632;23.298;2024-03-07T04:10:05;11.07;;;8.50;;
13032;SDS011;6583;42.632;23.298;2024-03-07T04:12:33;13.87;;;8.60;;
13032;SDS011;6583;42.632;23.298;2024-03-07T04:15:00;14.10;;;9.13;;
13032;SDS011;6583;42.632;23.298;2024-03-07T04:17:29;11.10;;;8.90;;
13032;SDS011;6583;42.632;23.298;2024-03-07T04:19:56;11.40;;;9.03;;
13032;SDS011;6583;42.632;23.298;2024-03-07T04:22:24;11.37;;;9.23;;
13032;SDS011;6583;42.632;23.298;2024-03-07T04:24:51;12.87;;;9.93;;
13032;SDS011;6583;42.632;23.298;2024-03-07T04:27:19;15.77;;;10.30;;
13032;SDS011;6583;42.632;23.298;2024-03-07T04:29:46;14.07;;;11.10;;
13032;SDS011;6583;42.632;23.298;2024-03-07T04:32:14;14.60;;;10.93;;
13032;SDS011;6583;42.632;23.298;2024-03-07T04:34:42;15.27;;;11.10;;
13032;SDS011;6583;42.632;23.298;2024-03-07T04:37:09;14.93;;;11.20;;
13032;SDS011;6583;42.632;23.298;2024-03-07T04:39:37;14.37;;;10.90;;
13032;SDS011;6583;42.632;23.298;2024-03-07T04:42:04;12.90;;;9.87;;
13032;SDS011;6583;42.632;23.298;2024-03-07T04:44:32;13.03;;;10.23;;
13032;SDS011;6583;42.632;23.298;2024-03-07T04:47:00;13.37;;;10.50;;
13032;SDS011;6583;42.632;23.298;2024-03-07T04:49:29;13.30;;;10.40;;
13032;SDS011;6583;42.632;23.298;2024-03-07T04:51:57;29.20;;;14.60;;
13032;SDS011;6583;42.632;23.298;2024-03-07T04:54:24;317.13;;;20.20;;
13032;SDS011;6583;42.632;23.298;2024-03-07T04:56:53;22.23;;;13.77;;
13032;SDS011;6583;42.632;23.298;2024-03-07T04:59:20;50.67;;;14.67;;
13032;SDS011;6583;42.632;23.298;2024-03-07T05:01:48;22.37;;;13.13;;
13032;SDS011;6583;42.632;23.298;2024-03-07T05:04:16;21.27;;;13.90;;
13032;SDS011;6583;42.632;23.298;2024-03-07T05:06:44;19.03;;;12.67;;
13032;SDS011;6583;42.632;23.298;2024-03-07T05:09:13;19.43;;;14.30;;
13032;SDS011;6583;42.632;23.298;2024-03-07T05:11:48;9.20;;;7.83;;
13032;SDS011;6583;42.632;23.298;2024-03-07T05:14:16;9.07;;;7.00;;
13032;SDS011;6583;42.632;23.298;2024-03-07T05:16:45;7.23;;;6.33;;
13032;SDS011;6583;42.632;23.298;2024-03-07T05:19:27;5.53;;;4.60;;
13032;SDS011;6583;42.632;23.298;2024-03-07T05:21:54;4.03;;;3.60;;
13032;SDS011;6583;42.632;23.298;2024-03-07T05:24:21;6.30;;;3.93;;
13032;SDS011;6583;42.632;23.298;2024-03-07T05:26:47;5.63;;;4.10;;
13032;SDS011;6583;42.632;23.298;2024-03-07T05:29:14;4.50;;;4.07;;
13032;SDS011;6583;42.632;23.298;2024-03-07T05:31:44;26.63;;;6.47;;
13032;SDS011;6583;42.632;23.298;2024-03-07T05:34:12;5.00;;;4.27;;
13032;SDS011;6583;42.632;23.298;2024-03-07T05:36:39;5.67;;;4.67;;
13032;SDS011;6583;42.632;23.298;2024-03-07T05:39:09;5.03;;;4.27;;
13032;SDS011;6583;42.632;23.298;2024-03-07T05:41:36;5.57;;;4.60;;
13032;SDS011;6583;42.632;23.298;2024-03-07T05:44:03;5.30;;;4.43;;
13032;SDS011;6583;42.632;23.298;2024-03-07T05:46:34;5.17;;;4.67;;
13032;SDS011;6583;42.632;23.298;2024-03-07T05:49:03;8.77;;;7.70;;
13032;SDS011;6583;42.632;23.298;2024-03-07T05:51:30;12.23;;;11.03;;
13032;SDS011;6583;42.632;23.298;2024-03-07T05:53:57;11.73;;;10.53;;
13032;SDS011;6583;42.632;23.298;2024-03-07T05:56:23;11.73;;;10.53;;
13032;SDS011;6583;42.632;23.298;2024-03-07T05:58:50;13.10;;;10.93;;
13032;SDS011;6583;42.632;23.298;2024-03-07T06:01:17;7.17;;;6.47;;
13032;SDS011;6583;42.632;23.298;2024-03-07T06:03:44;6.27;;;5.67;;
13032;SDS011;6583;42.632;23.298;2024-03-07T06:06:15;8.33;;;7.13;;
13032;SDS011;6583;42.632;23.298;2024-03-07T06:08:41;13.30;;;9.33;;
13032;SDS011;6583;42.632;23.298;2024-03-07T06:11:09;9.20;;;6.60;;
13032;SDS011;6583;42.632;23.298;2024-03-07T06:13:38;8.23;;;6.47;;
13032;SDS011;6583;42.632;23.298;2024-03-07T06:16:05;6.30;;;5.40;;
13032;SDS011;6583;42.632;23.298;2024-03-07T06:18:33;6.03;;;4.60;;
13032;SDS011;6583;42.632;23.298;2024-03-07T06:21:00;4.83;;;3.33;;
13032;SDS011;6583;42.632;23.298;2024-03-07T06:23:30;4.80;;;3.57;;
13032;SDS011;6583;42.632;23.298;2024-03-07T06:25:57;3.40;;;3.10;;
13032;SDS011;6583;42.632;23.298;2024-03-07T06:28:25;3.37;;;2.80;;
13032;SDS011;6583;42.632;23.298;2024-03-07T06:30:53;5.10;;;3.70;;
13032;SDS011;6583;42.632;23.298;2024-03-07T06:33:22;3.60;;;3.10;;
13032;SDS011;6583;42.632;23.298;2024-03-07T06:35:50;3.77;;;3.13;;
13032;SDS011;6583;42.632;23.298;2024-03-07T06:38:17;3.87;;;3.47;;
13032;SDS011;6583;42.632;23.298;2024-03-07T06:40:45;4.10;;;3.70;;
13032;SDS011;6583;42.632;23.298;2024-03-07T06:43:12;4.70;;;4.13;;
13032;SDS011;6583;42.632;23.298;2024-03-07T06:45:39;5.00;;;4.50;;
13032;SDS011;6583;42.632;23.298;2024-03-07T06:48:06;5.40;;;4.17;;
13032;SDS011;6583;42.632;23.298;2024-03-07T06:50:34;6.17;;;4.93;;
13032;SDS011;6583;42.632;23.298;2024-03-07T06:53:01;8.20;;;6.93;;
13032;SDS011;6583;42.632;23.298;2024-03-07T06:55:28;8.00;;;7.20;;
13032;SDS011;6583;42.632;23.298;2024-03-07T06:57:56;9.30;;;8.30;;
13032;SDS011;6583;42.632;23.298;2024-03-07T07:00:23;10.10;;;7.83;;
13032;SDS011;6583;42.632;23.298;2024-03-07T07:02:51;9.43;;;8.43;;
13032;SDS011;6583;42.632;23.298;2024-03-07T07:05:19;9.17;;;7.93;;
13032;SDS011;6583;42.632;23.298;2024-03-07T07:07:46;10.27;;;8.53;;
13032;SDS011;6583;42.632;23.298;2024-03-07T07:10:13;12.17;;;9.07;;
13032;SDS011;6583;42.632;23.298;2024-03-07T07:12:43;12.70;;;10.30;;
13032;SDS011;6583;42.632;23.298;2024-03-07T07:15:11;12.37;;;10.00;;
13032;SDS011;6583;42.632;23.298;2024-03-07T07:17:40;11.23;;;9.87;;
13032;SDS011;6583;42.632;23.298;2024-03-07T07:20:08;8.03;;;7.07;;
13032;SDS011;6583;42.632;23.298;2024-03-07T07:22:35;8.57;;;6.70;;
13032;SDS011;6583;42.632;23.298;2024-03-07T07:25:02;11.97;;;9.57;;
13032;SDS011;6583;42.632;23.298;2024-03-07T07:27:30;12.23;;;9.90;;
13032;SDS011;6583;42.632;23.298;2024-03-07T07:29:57;15.57;;;12.70;;
13032;SDS011;6583;42.632;23.298;2024-03-07T07:32:26;15.90;;;12.93;;
13032;SDS011;6583;42.632;23.298;2024-03-07T07:34:53;16.07;;;13.17;;
13032;SDS011;6583;42.632;23.298;2024-03-07T07:37:20;17.87;;;13.97;;
13032;SDS011;6583;42.632;23.298;2024-03-07T07:39:48;15.47;;;12.83;;
13032;SDS011;6583;42.632;23.298;2024-03-07T07:42:15;16.20;;;12.23;;
13032;SDS011;6583;42.632;23.298;2024-03-07T07:44:41;14.10;;;11.57;;
13032;SDS011;6583;42.632;23.298;2024-03-07T07:47:08;12.30;;;10.33;;
13032;SDS011;6583;42.632;23.298;2024-03-07T07:49:37;13.90;;;10.97;;
13032;SDS011;6583;42.632;23.298;2024-03-07T07:52:04;14.97;;;11.43;;
13032;SDS011;6583;42.632;23.298;2024-03-07T07:54:31;12.57;;;9.93;;
13032;SDS011;6583;42.632;23.298;2024-03-07T07:56:59;9.17;;;8.10;;
13032;SDS011;6583;42.632;23.298;2024-03-07T07:59:25;9.00;;;7.80;;
13032;SDS011;6583;42.632;23.298;2024-03-07T08:01:52;9.63;;;7.70;;
13032;SDS011;6583;42.632;23.298;2024-03-07T08:04:20;10.57;;;7.80;;
13032;SDS011;6583;42.632;23.298;2024-03-07T08:06:48;9.87;;;7.53;;
13032;SDS011;6583;42.632;23.298;2024-03-07T08:09:16;8.40;;;7.40;;
13032;SDS011;6583;42.632;23.298;2024-03-07T08:11:43;7.83;;;6.47;;
13032;SDS011;6583;42.632;23.298;2024-03-07T08:14:10;7.80;;;6.93;;
13032;SDS011;6583;42.632;23.298;2024-03-07T08:16:37;7.70;;;6.60;;
13032;SDS011;6583;42.632;23.298;2024-03-07T08:19:04;7.13;;;6.43;;
13032;SDS011;6583;42.632;23.298;2024-03-07T08:21:31;6.80;;;6.10;;
13032;SDS011;6583;42.632;23.298;2024-03-07T08:23:59;8.33;;;6.60;;
13032;SDS011;6583;42.632;23.298;2024-03-07T08:26:28;10.60;;;7.37;;
13032;SDS011;6583;42.632;23.298;2024-03-07T08:28:55;7.53;;;6.63;;
13032;SDS011;6583;42.632;23.298;2024-03-07T08:31:22;8.30;;;7.50;;
13032;SDS011;6583;42.632;23.298;2024-03-07T08:33:48;8.57;;;7.67;;
13032;SDS011;6583;42.632;23.298;2024-03-07T08:36:15;9.47;;;8.50;;
13032;SDS011;6583;42.632;23.298;2024-03-07T08:38:42;10.73;;;8.40;;
13032;SDS011;6583;42.632;23.298;2024-03-07T08:41:12;10.37;;;9.03;;
13032;SDS011;6583;42.632;23.298;2024-03-07T08:43:39;11.03;;;9.40;;
13032;SDS011;6583;42.632;23.298;2024-03-07T08:46:06;10.87;;;9.50;;
13032;SDS011;6583;42.632;23.298;2024-03-07T08:48:33;10.67;;;9.57;;
13032;SDS011;6583;42.632;23.298;2024-03-07T08:51:00;9.47;;;8.53;;
13032;SDS011;6583;42.632;23.298;2024-03-07T08:53:27;9.73;;;8.73;;
13032;SDS011;6583;42.632;23.298;2024-03-07T08:55:53;10.17;;;9.03;;
13032;SDS011;6583;42.632;23.298;2024-03-07T08:58:21;10.27;;;9.17;;
13032;SDS011;6583;42.632;23.298;2024-03-07T09:00:49;10.67;;;9.23;;
13032;SDS011;6583;42.632;23.298;2024-03-07T09:03:17;12.27;;;10.17;;
13032;SDS011;6583;42.632;23.298;2024-03-07T09:05:46;11.90;;;10.50;;
13032;SDS011;6583;42.632;23.298;2024-03-07T09:08:13;11.97;;;9.93;;
13032;SDS011;6583;42.632;23.298;2024-03-07T09:10:40;11.47;;;10.27;;
13032;SDS011;6583;42.632;23.298;2024-03-07T09:13:07;12.27;;;10.37;;
13032;SDS011;6583;42.632;23.298;2024-03-07T09:15:36;11.40;;;10.20;;
13032;SDS011;6583;42.632;23.298;2024-03-07T09:18:03;12.13;;;10.83;;
13032;SDS011;6583;42.632;23.298;2024-03-07T09:20:31;13.93;;;11.33;;
13032;SDS011;6583;42.632;23.298;2024-03-07T09:22:57;12.00;;;10.80;;
13032;SDS011;6583;42.632;23.298;2024-03-07T09:25:25;12.27;;;10.97;;
13032;SDS011;6583;42.632;23.298;2024-03-07T09:27:52;13.13;;;10.50;;
13032;SDS011;6583;42.632;23.298;2024-03-07T09:30:19;11.63;;;8.70;;
13032;SDS011;6583;42.632;23.298;2024-03-07T09:32:51;9.10;;;7.70;;
13032;SDS011;6583;42.632;23.298;2024-03-07T09:35:20;8.63;;;7.30;;
13032;SDS011;6583;42.632;23.298;2024-03-07T09:37:47;9.00;;;7.83;;
13032;SDS011;6583;42.632;23.298;2024-03-07T09:40:14;9.60;;;7.80;;
13032;SDS011;6583;42.632;23.298;2024-03-07T09:42:41;9.27;;;8.33;;
13032;SDS011;6583;42.632;23.298;2024-03-07T09:45:13;9.80;;;8.80;;
13032;SDS011;6583;42.632;23.298;2024-03-07T09:47:43;9.93;;;8.33;;
13032;SDS011;6583;42.632;23.298;2024-03-07T09:50:13;9.27;;;8.23;;
13032;SDS011;6583;42.632;23.298;2024-03-07T09:52:44;10.83;;;8.27;;
13032;SDS011;6583;42.632;23.298;2024-03-07T09:55:14;10.27;;;8.27;;
13032;SDS011;6583;42.632;23.298;2024-03-07T09:57:42;10.53;;;8.67;;
13032;SDS011;6583;42.632;23.298;2024-03-07T10:00:09;10.97;;;8.50;;
13032;SDS011;6583;42.632;23.298;2024-03-07T10:02:47;12.00;;;9.20;;
13032;SDS011;6583;42.632;23.298;2024-03-07T10:05:20;10.27;;;8.93;;
13032;SDS011;6583;42.632;23.298;2024-03-07T10:07:49;13.27;;;8.90;;
13032;SDS011;6583;42.632;23.298;2024-03-07T10:10:17;11.67;;;9.30;;
13032;SDS011;6583;42.632;23.298;2024-03-07T10:12:44;12.13;;;9.23;;
13032;SDS011;6583;42.632;23.298;2024-03-07T10:15:11;13.00;;;9.93;;
13032;SDS011;6583;42.632;23.298;2024-03-07T10:17:38;12.07;;;10.17;;
13032;SDS011;6583;42.632;23.298;2024-03-07T10:20:06;11.53;;;9.83;;
13032;SDS011;6583;42.632;23.298;2024-03-07T10:22:40;11.90;;;9.97;;
13032;SDS011;6583;42.632;23.298;2024-03-07T10:25:07;10.63;;;9.47;;
13032;SDS011;6583;42.632;23.298;2024-03-07T10:27:36;11.23;;;9.80;;
13032;SDS011;6583;42.632;23.298;2024-03-07T10:30:03;12.27;;;10.50;;
13032;SDS011;6583;42.632;23.298;2024-03-07T10:32:32;14.53;;;11.87;;
13032;SDS011;6583;42.632;23.298;2024-03-07T10:34:59;13.17;;;10.87;;
13032;SDS011;6583;42.632;23.298;2024-03-07T10:37:28;11.80;;;9.80;;
13032;SDS011;6583;42.632;23.298;2024-03-07T10:39:57;10.63;;;9.53;;
13032;SDS011;6583;42.632;23.298;2024-03-07T10:42:23;12.80;;;9.83;;
13032;SDS011;6583;42.632;23.298;2024-03-07T10:44:59;9.57;;;8.67;;
13032;SDS011;6583;42.632;23.298;2024-03-07T10:47:30;13.67;;;10.97;;
13032;SDS011;6583;42.632;23.298;2024-03-07T10:50:04;9.77;;;8.77;;
13032;SDS011;6583;42.632;23.298;2024-03-07T10:52:40;10.80;;;9.70;;
13032;SDS011;6583;42.632;23.298;2024-03-07T10:55:18;11.70;;;10.00;;
13032;SDS011;6583;42.632;23.298;2024-03-07T10:57:59;13.67;;;10.87;;
13032;SDS011;6583;42.632;23.298;2024-03-07T11:00:29;12.40;;;11.10;;
13032;SDS011;6583;42.632;23.298;2024-03-07T11:03:00;10.70;;;9.60;;
13032;SDS011;6583;42.632;23.298;2024-03-07T11:05:32;13.93;;;10.17;;
13032;SDS011;6583;42.632;23.298;2024-03-07T11:07:59;12.00;;;10.03;;
13032;SDS011;6583;42.632;23.298;2024-03-07T11:10:30;11.43;;;8.90;;
13032;SDS011;6583;42.632;23.298;2024-03-07T11:12:56;11.07;;;9.30;;
13032;SDS011;6583;42.632;23.298;2024-03-07T11:15:24;10.80;;;9.33;;
13032;SDS011;6583;42.632;23.298;2024-03-07T11:17:53;10.00;;;8.47;;
13032;SDS011;6583;42.632;23.298;2024-03-07T11:20:20;43.43;;;24.77;;
13032;SDS011;6583;42.632;23.298;2024-03-07T11:22:48;32.40;;;19.83;;
13032;SDS011;6583;42.632;23.298;2024-03-07T11:25:17;37.83;;;22.10;;
13032;SDS011;6583;42.632;23.298;2024-03-07T11:27:51;7.67;;;6.60;;
13032;SDS011;6583;42.632;23.298;2024-03-07T11:30:20;6.30;;;5.70;;
13032;SDS011;6583;42.632;23.298;2024-03-07T11:32:48;8.43;;;7.57;;
13032;SDS011;6583;42.632;23.298;2024-03-07T11:35:18;8.63;;;6.60;;
13032;SDS011;6583;42.632;23.298;2024-03-07T11:37:56;7.77;;;6.63;;
13032;SDS011;6583;42.632;23.298;2024-03-07T11:43:15;6.13;;;5.50;;
13032;SDS011;6583;42.632;23.298;2024-03-07T11:45:42;8.73;;;5.80;;
13032;SDS011;6583;42.632;23.298;2024-03-07T11:48:17;8.53;;;5.73;;
13032;SDS011;6583;42.632;23.298;2024-03-07T11:50:45;8.40;;;6.20;;
13032;SDS011;6583;42.632;23.298;2024-03-07T11:53:12;7.57;;;6.10;;
13032;SDS011;6583;42.632;23.298;2024-03-07T11:55:39;7.57;;;6.43;;
13032;SDS011;6583;42.632;23.298;2024-03-07T11:58:10;7.77;;;6.10;;
13032;SDS011;6583;42.632;23.298;2024-03-07T12:00:41;7.47;;;6.30;;
13032;SDS011;6583;42.632;23.298;2024-03-07T12:03:10;10.03;;;7.10;;
13032;SDS011;6583;42.632;23.298;2024-03-07T12:05:38;9.90;;;7.70;;
13032;SDS011;6583;42.632;23.298;2024-03-07T12:08:06;9.67;;;7.33;;
13032;SDS011;6583;42.632;23.298;2024-03-07T12:10:34;8.83;;;6.73;;
13032;SDS011;6583;42.632;23.298;2024-03-07T12:13:04;9.97;;;6.63;;
13032;SDS011;6583;42.632;23.298;2024-03-07T12:15:32;9.50;;;7.20;;
13032;SDS011;6583;42.632;23.298;2024-03-07T12:18:01;8.73;;;6.77;;
13032;SDS011;6583;42.632;23.298;2024-03-07T12:20:34;9.57;;;7.03;;
13032;SDS011;6583;42.632;23.298;2024-03-07T12:23:02;8.53;;;6.43;;
13032;SDS011;6583;42.632;23.298;2024-03-07T12:25:33;8.10;;;6.43;;
13032;SDS011;6583;42.632;23.298;2024-03-07T12:28:05;8.70;;;6.57;;
13032;SDS011;6583;42.632;23.298;2024-03-07T12:30:36;7.60;;;6.33;;
13032;SDS011;6583;42.632;23.298;2024-03-07T12:33:16;8.07;;;6.77;;
13032;SDS011;6583;42.632;23.298;2024-03-07T12:35:44;7.70;;;6.07;;
13032;SDS011;6583;42.632;23.298;2024-03-07T12:38:13;6.70;;;5.30;;
13032;SDS011;6583;42.632;23.298;2024-03-07T12:40:41;6.40;;;5.67;;
13032;SDS011;6583;42.632;23.298;2024-03-07T12:43:17;6.43;;;4.87;;
13032;SDS011;6583;42.632;23.298;2024-03-07T12:45:47;7.00;;;5.50;;
13032;SDS011;6583;42.632;23.298;2024-03-07T12:48:16;7.87;;;5.30;;
13032;SDS011;6583;42.632;23.298;2024-03-07T12:50:45;12.23;;;8.83;;
13032;SDS011;6583;42.632;23.298;2024-03-07T12:53:12;6.77;;;5.40;;
13032;SDS011;6583;42.632;23.298;2024-03-07T12:55:38;6.73;;;5.00;;
13032;SDS011;6583;42.632;23.298;2024-03-07T12:58:07;7.07;;;5.77;;
13032;SDS011;6583;42.632;23.298;2024-03-07T13:00:36;6.80;;;5.30;;
13032;SDS011;6583;42.632;23.298;2024-03-07T13:03:03;5.90;;;4.40;;
13032;SDS011;6583;42.632;23.298;2024-03-07T13:05:32;7.50;;;4.77;;
13032;SDS011;6583;42.632;23.298;2024-03-07T13:07:59;5.40;;;4.90;;
13032;SDS011;6583;42.632;23.298;2024-03-07T13:10:26;5.77;;;4.40;;
13032;SDS011;6583;42.632;23.298;2024-03-07T13:12:52;7.10;;;4.57;;
13032;SDS011;6583;42.632;23.298;2024-03-07T13:15:19;6.03;;;5.43;;
13032;SDS011;6583;42.632;23.298;2024-03-07T13:17:47;6.57;;;5.40;;
13032;SDS011;6583;42.632;23.298;2024-03-07T13:20:18;8.40;;;6.10;;
13032;SDS011;6583;42.632;23.298;2024-03-07T13:22:48;7.47;;;5.60;;
13032;SDS011;6583;42.632;23.298;2024-03-07T13:25:16;7.93;;;6.33;;
13032;SDS011;6583;42.632;23.298;2024-03-07T13:27:50;9.53;;;7.47;;
13032;SDS011;6583;42.632;23.298;2024-03-07T13:30:21;7.17;;;6.23;;
13032;SDS011;6583;42.632;23.298;2024-03-07T13:32:52;6.47;;;4.70;;
13032;SDS011;6583;42.632;23.298;2024-03-07T13:35:20;4.13;;;2.97;;
13032;SDS011;6583;42.632;23.298;2024-03-07T13:37:49;3.50;;;2.37;;
13032;SDS011;6583;42.632;23.298;2024-03-07T13:40:16;3.60;;;2.50;;
13032;SDS011;6583;42.632;23.298;2024-03-07T13:42:50;4.53;;;2.83;;
13032;SDS011;6583;42.632;23.298;2024-03-07T13:45:18;2.97;;;2.37;;
13032;SDS011;6583;42.632;23.298;2024-03-07T13:47:47;4.30;;;2.50;;
13032;SDS011;6583;42.632;23.298;2024-03-07T13:50:15;4.23;;;2.57;;
13032;SDS011;6583;42.632;23.298;2024-03-07T13:52:44;3.53;;;2.80;;
13032;SDS011;6583;42.632;23.298;2024-03-07T13:55:31;3.83;;;2.90;;
13032;SDS011;6583;42.632;23.298;2024-03-07T13:58:01;4.17;;;3.20;;
13032;SDS011;6583;42.632;23.298;2024-03-07T14:00:41;4.40;;;3.40;;
13032;SDS011;6583;42.632;23.298;2024-03-07T14:03:25;4.60;;;3.00;;
13032;SDS011;6583;42.632;23.298;2024-03-07T14:06:09;4.37;;;3.77;;
13032;SDS011;6583;42.632;23.298;2024-03-07T14:11:56;5.07;;;3.97;;
13032;SDS011;6583;42.632;23.298;2024-03-07T14:18:03;4.77;;;4.20;;
13032;SDS011;6583;42.632;23.298;2024-03-07T14:21:16;5.47;;;4.80;;
13032;SDS011;6583;42.632;23.298;2024-03-07T14:24:16;6.23;;;;;
13032;SDS011;6583;42.632;23.298;2024-03-07T14:30:04;8.13;;;6.70;;
13032;SDS011;6583;42.632;23.298;2024-03-07T14:32:47;7.17;;;6.47;;
13032;SDS011;6583;42.632;23.298;2024-03-07T14:35:17;6.10;;;5.50;;
13032;SDS011;6583;42.632;23.298;2024-03-07T14:37:49;6.00;;;5.40;;
13032;SDS011;6583;42.632;23.298;2024-03-07T14:40:21;5.57;;;4.43;;
13032;SDS011;6583;42.632;23.298;2024-03-07T14:42:51;3.13;;;2.83;;
13032;SDS011;6583;42.632;23.298;2024-03-07T14:45:23;5.40;;;3.57;;
13032;SDS011;6583;42.632;23.298;2024-03-07T14:47:56;3.50;;;3.10;;
13032;SDS011;6583;42.632;23.298;2024-03-07T14:50:24;4.20;;;3.43;;
13032;SDS011;6583;42.632;23.298;2024-03-07T14:52:57;4.67;;;3.47;;
13032;SDS011;6583;42.632;23.298;2024-03-07T14:55:24;5.07;;;3.87;;
13032;SDS011;6583;42.632;23.298;2024-03-07T14:57:53;4.17;;;3.50;;